sensor_id;sensor_type;location;lat;lon;timestamp;P1;durP1;ratioP1;P2;durP2;ratioP2
73100;SDS011;61288;53.446;-2.266;2022-08-19T00:01:09;12.68;;;3.30;;
73100;SDS011;61288;53.446;-2.266;2022-08-19T00:03:35;12.43;;;3.45;;
73100;SDS011;61288;53.446;-2.266;2022-08-19T00:06:00;14.40;;;3.30;;
73100;SDS011;61288;53.446;-2.266;2022-08-19T00:08:26;13.13;;;3.88;;
73100;SDS011;61288;53.446;-2.266;2022-08-19T00:10:52;15.05;;;3.00;;
73100;SDS011;61288;53.446;-2.266;2022-08-19T00:13:17;13.45;;;3.75;;
73100;SDS011;61288;53.446;-2.266;2022-08-19T00:15:43;13.88;;;3.65;;
73100;SDS011;61288;53.446;-2.266;2022-08-19T00:18:09;13.00;;;3.08;;
73100;SDS011;61288;53.446;-2.266;2022-08-19T00:20:35;14.27;;;3.50;;
73100;SDS011;61288;53.446;-2.266;2022-08-19T00:23:03;11.88;;;2.53;;
73100;SDS011;61288;53.446;-2.266;2022-08-19T00:25:28;15.45;;;3.28;;
73100;SDS011;61288;53.446;-2.266;2022-08-19T00:27:54;18.98;;;3.75;;
73100;SDS011;61288;53.446;-2.266;2022-08-19T00:30:20;12.43;;;3.28;;
73100;SDS011;61288;53.446;-2.266;2022-08-19T00:32:46;13.00;;;2.65;;
73100;SDS011;61288;53.446;-2.266;2022-08-19T00:35:12;12.40;;;3.08;;
73100;SDS011;61288;53.446;-2.266;2022-08-19T00:37:38;14.23;;;3.30;;
73100;SDS011;61288;53.446;-2.266;2022-08-19T00:40:08;15.35;;;3.55;;
73100;SDS011;61288;53.446;-2.266;2022-08-19T00:42:37;16.10;;;3.20;;
73100;SDS011;61288;53.446;-2.266;2022-08-19T00:45:05;15.30;;;3.20;;
73100;SDS011;61288;53.446;-2.266;2022-08-19T00:47:36;15.02;;;2.78;;
73100;SDS011;61288;53.446;-2.266;2022-08-19T00:50:03;11.60;;;2.35;;
73100;SDS011;61288;53.446;-2.266;2022-08-19T00:52:31;16.13;;;2.53;;
73100;SDS011;61288;53.446;-2.266;2022-08-19T00:55:00;14.38;;;3.00;;
73100;SDS011;61288;53.446;-2.266;2022-08-19T00:57:30;14.77;;;2.53;;
73100;SDS011;61288;53.446;-2.266;2022-08-19T01:00:00;9.82;;;2.58;;
73100;SDS011;61288;53.446;-2.266;2022-08-19T01:02:28;17.40;;;2.95;;
73100;SDS011;61288;53.446;-2.266;2022-08-19T01:04:55;15.82;;;2.75;;
73100;SDS011;61288;53.446;-2.266;2022-08-19T01:07:21;10.35;;;2.10;;
73100;SDS011;61288;53.446;-2.266;2022-08-19T01:09:47;11.93;;;2.50;;
73100;SDS011;61288;53.446;-2.266;2022-08-19T01:12:12;12.98;;;2.28;;
73100;SDS011;61288;53.446;-2.266;2022-08-19T01:14:39;15.15;;;2.40;;
73100;SDS011;61288;53.446;-2.266;2022-08-19T01:17:06;8.75;;;2.05;;
73100;SDS011;61288;53.446;-2.266;2022-08-19T01:19:36;13.85;;;2.55;;
73100;SDS011;61288;53.446;-2.266;2022-08-19T01:25:02;13.90;;;2.13;;
73100;SDS011;61288;53.446;-2.266;2022-08-19T01:27:50;11.00;;;2.08;;
73100;SDS011;61288;53.446;-2.266;2022-08-19T01:30:34;9.23;;;2.00;;
73100;SDS011;61288;53.446;-2.266;2022-08-19T01:33:01;8.98;;;1.98;;
73100;SDS011;61288;53.446;-2.266;2022-08-19T01:35:30;17.63;;;2.45;;
73100;SDS011;61288;53.446;-2.266;2022-08-19T01:37:59;16.33;;;2.50;;
73100;SDS011;61288;53.446;-2.266;2022-08-19T01:40:28;16.60;;;2.67;;
73100;SDS011;61288;53.446;-2.266;2022-08-19T01:42:56;12.40;;;2.20;;
73100;SDS011;61288;53.446;-2.266;2022-08-19T01:45:24;13.15;;;2.30;;
73100;SDS011;61288;53.446;-2.266;2022-08-19T01:47:52;14.93;;;3.08;;
73100;SDS011;61288;53.446;-2.266;2022-08-19T01:50:18;8.68;;;2.30;;
73100;SDS011;61288;53.446;-2.266;2022-08-19T01:52:44;12.38;;;2.45;;
73100;SDS011;61288;53.446;-2.266;2022-08-19T01:55:13;18.33;;;3.22;;
73100;SDS011;61288;53.446;-2.266;2022-08-19T01:57:41;11.43;;;2.30;;
73100;SDS011;61288;53.446;-2.266;2022-08-19T02:00:11;11.45;;;2.15;;
73100;SDS011;61288;53.446;-2.266;2022-08-19T02:02:40;14.88;;;2.20;;
73100;SDS011;61288;53.446;-2.266;2022-08-19T02:05:08;11.63;;;2.65;;
73100;SDS011;61288;53.446;-2.266;2022-08-19T02:07:35;17.75;;;2.60;;
73100;SDS011;61288;53.446;-2.266;2022-08-19T02:10:06;12.35;;;2.22;;
73100;SDS011;61288;53.446;-2.266;2022-08-19T02:12:34;12.02;;;2.30;;
73100;SDS011;61288;53.446;-2.266;2022-08-19T02:15:00;17.17;;;2.38;;
73100;SDS011;61288;53.446;-2.266;2022-08-19T02:17:27;14.82;;;3.25;;
73100;SDS011;61288;53.446;-2.266;2022-08-19T02:19:55;13.10;;;2.63;;
73100;SDS011;61288;53.446;-2.266;2022-08-19T02:22:22;16.20;;;2.72;;
73100;SDS011;61288;53.446;-2.266;2022-08-19T02:24:51;16.60;;;2.85;;
73100;SDS011;61288;53.446;-2.266;2022-08-19T02:27:20;11.40;;;2.75;;
73100;SDS011;61288;53.446;-2.266;2022-08-19T02:29:47;13.82;;;2.83;;
73100;SDS011;61288;53.446;-2.266;2022-08-19T02:32:14;17.13;;;2.90;;
73100;SDS011;61288;53.446;-2.266;2022-08-19T02:34:41;12.07;;;2.40;;
73100;SDS011;61288;53.446;-2.266;2022-08-19T02:37:06;11.55;;;2.42;;
73100;SDS011;61288;53.446;-2.266;2022-08-19T02:39:54;13.20;;;3.17;;
73100;SDS011;61288;53.446;-2.266;2022-08-19T02:42:19;8.10;;;1.98;;
73100;SDS011;61288;53.446;-2.266;2022-08-19T02:44:45;14.77;;;2.47;;
73100;SDS011;61288;53.446;-2.266;2022-08-19T02:47:10;14.38;;;2.70;;
73100;SDS011;61288;53.446;-2.266;2022-08-19T02:49:36;15.40;;;2.63;;
73100;SDS011;61288;53.446;-2.266;2022-08-19T02:52:02;11.63;;;2.05;;
73100;SDS011;61288;53.446;-2.266;2022-08-19T02:54:28;13.45;;;2.33;;
73100;SDS011;61288;53.446;-2.266;2022-08-19T02:56:54;13.35;;;2.80;;
73100;SDS011;61288;53.446;-2.266;2022-08-19T02:59:19;16.42;;;2.40;;
73100;SDS011;61288;53.446;-2.266;2022-08-19T03:01:46;15.95;;;2.38;;
73100;SDS011;61288;53.446;-2.266;2022-08-19T03:04:12;12.10;;;2.25;;
73100;SDS011;61288;53.446;-2.266;2022-08-19T03:06:42;14.65;;;2.63;;
73100;SDS011;61288;53.446;-2.266;2022-08-19T03:09:10;12.40;;;2.38;;
73100;SDS011;61288;53.446;-2.266;2022-08-19T03:11:36;13.20;;;2.70;;
73100;SDS011;61288;53.446;-2.266;2022-08-19T03:14:03;9.20;;;1.83;;
73100;SDS011;61288;53.446;-2.266;2022-08-19T03:16:33;15.10;;;2.50;;
73100;SDS011;61288;53.446;-2.266;2022-08-19T03:19:05;12.93;;;2.63;;
73100;SDS011;61288;53.446;-2.266;2022-08-19T03:21:31;14.63;;;2.90;;
73100;SDS011;61288;53.446;-2.266;2022-08-19T03:24:00;10.15;;;2.22;;
73100;SDS011;61288;53.446;-2.266;2022-08-19T03:26:27;13.93;;;2.33;;
73100;SDS011;61288;53.446;-2.266;2022-08-19T03:28:57;12.15;;;2.10;;
73100;SDS011;61288;53.446;-2.266;2022-08-19T03:31:23;12.75;;;2.40;;
73100;SDS011;61288;53.446;-2.266;2022-08-19T03:33:51;13.93;;;2.92;;
73100;SDS011;61288;53.446;-2.266;2022-08-19T03:36:18;16.30;;;3.45;;
73100;SDS011;61288;53.446;-2.266;2022-08-19T03:41:15;10.60;;;2.28;;
73100;SDS011;61288;53.446;-2.266;2022-08-19T03:44:00;16.45;;;2.90;;
73100;SDS011;61288;53.446;-2.266;2022-08-19T03:46:27;14.25;;;2.35;;
73100;SDS011;61288;53.446;-2.266;2022-08-19T03:48:56;13.65;;;2.25;;
73100;SDS011;61288;53.446;-2.266;2022-08-19T03:51:24;9.23;;;2.05;;
73100;SDS011;61288;53.446;-2.266;2022-08-19T03:53:52;13.07;;;2.33;;
73100;SDS011;61288;53.446;-2.266;2022-08-19T03:56:19;8.90;;;2.15;;
73100;SDS011;61288;53.446;-2.266;2022-08-19T03:58:45;12.10;;;2.47;;
73100;SDS011;61288;53.446;-2.266;2022-08-19T04:01:16;11.65;;;2.35;;
73100;SDS011;61288;53.446;-2.266;2022-08-19T04:03:44;16.65;;;2.53;;
73100;SDS011;61288;53.446;-2.266;2022-08-19T04:08:47;12.77;;;2.20;;
73100;SDS011;61288;53.446;-2.266;2022-08-19T04:11:17;13.82;;;2.17;;
73100;SDS011;61288;53.446;-2.266;2022-08-19T04:13:46;15.75;;;2.45;;
73100;SDS011;61288;53.446;-2.266;2022-08-19T04:16:12;9.05;;;2.40;;
73100;SDS011;61288;53.446;-2.266;2022-08-19T04:18:39;9.55;;;2.17;;
73100;SDS011;61288;53.446;-2.266;2022-08-19T04:21:06;12.70;;;2.75;;
73100;SDS011;61288;53.446;-2.266;2022-08-19T04:23:32;9.27;;;2.10;;
73100;SDS011;61288;53.446;-2.266;2022-08-19T04:26:02;10.63;;;2.25;;
73100;SDS011;61288;53.446;-2.266;2022-08-19T04:28:28;11.90;;;2.70;;
73100;SDS011;61288;53.446;-2.266;2022-08-19T04:30:54;11.45;;;2.22;;
73100;SDS011;61288;53.446;-2.266;2022-08-19T04:33:21;13.27;;;2.35;;
73100;SDS011;61288;53.446;-2.266;2022-08-19T04:35:49;11.98;;;2.50;;
73100;SDS011;61288;53.446;-2.266;2022-08-19T04:38:18;12.80;;;2.75;;
73100;SDS011;61288;53.446;-2.266;2022-08-19T04:40:46;12.80;;;2.63;;
73100;SDS011;61288;53.446;-2.266;2022-08-19T04:43:31;12.40;;;2.33;;
73100;SDS011;61288;53.446;-2.266;2022-08-19T04:46:04;11.80;;;2.38;;
73100;SDS011;61288;53.446;-2.266;2022-08-19T04:48:37;9.25;;;2.55;;
73100;SDS011;61288;53.446;-2.266;2022-08-19T04:51:08;13.07;;;2.13;;
73100;SDS011;61288;53.446;-2.266;2022-08-19T04:56:15;12.27;;;2.50;;
73100;SDS011;61288;53.446;-2.266;2022-08-19T04:58:44;11.90;;;2.83;;
73100;SDS011;61288;53.446;-2.266;2022-08-19T05:01:12;11.43;;;2.25;;
73100;SDS011;61288;53.446;-2.266;2022-08-19T05:03:41;7.72;;;1.88;;
73100;SDS011;61288;53.446;-2.266;2022-08-19T05:06:07;15.23;;;2.50;;
73100;SDS011;61288;53.446;-2.266;2022-08-19T05:08:36;13.63;;;2.50;;
73100;SDS011;61288;53.446;-2.266;2022-08-19T05:11:16;10.98;;;2.00;;
73100;SDS011;61288;53.446;-2.266;2022-08-19T05:14:09;11.82;;;2.63;;
73100;SDS011;61288;53.446;-2.266;2022-08-19T05:16:37;15.57;;;2.85;;
73100;SDS011;61288;53.446;-2.266;2022-08-19T05:19:03;12.55;;;2.35;;
73100;SDS011;61288;53.446;-2.266;2022-08-19T05:21:47;8.52;;;2.20;;
73100;SDS011;61288;53.446;-2.266;2022-08-19T05:24:31;15.02;;;2.50;;
73100;SDS011;61288;53.446;-2.266;2022-08-19T05:26:59;12.15;;;2.80;;
73100;SDS011;61288;53.446;-2.266;2022-08-19T05:29:27;12.45;;;2.38;;
73100;SDS011;61288;53.446;-2.266;2022-08-19T05:31:54;10.95;;;2.42;;
73100;SDS011;61288;53.446;-2.266;2022-08-19T05:34:21;9.93;;;2.60;;
73100;SDS011;61288;53.446;-2.266;2022-08-19T05:36:52;12.10;;;2.33;;
73100;SDS011;61288;53.446;-2.266;2022-08-19T05:39:21;13.60;;;2.42;;
73100;SDS011;61288;53.446;-2.266;2022-08-19T05:41:49;11.82;;;2.30;;
73100;SDS011;61288;53.446;-2.266;2022-08-19T05:44:18;9.68;;;2.28;;
73100;SDS011;61288;53.446;-2.266;2022-08-19T05:46:46;12.48;;;2.33;;
73100;SDS011;61288;53.446;-2.266;2022-08-19T05:49:12;10.18;;;2.60;;
73100;SDS011;61288;53.446;-2.266;2022-08-19T05:51:41;13.82;;;2.45;;
73100;SDS011;61288;53.446;-2.266;2022-08-19T05:54:08;12.90;;;2.55;;
73100;SDS011;61288;53.446;-2.266;2022-08-19T05:56:37;12.07;;;2.38;;
73100;SDS011;61288;53.446;-2.266;2022-08-19T05:59:03;8.88;;;2.28;;
73100;SDS011;61288;53.446;-2.266;2022-08-19T06:01:36;13.25;;;2.85;;
73100;SDS011;61288;53.446;-2.266;2022-08-19T06:04:03;12.07;;;2.30;;
73100;SDS011;61288;53.446;-2.266;2022-08-19T06:06:30;15.45;;;2.95;;
73100;SDS011;61288;53.446;-2.266;2022-08-19T06:08:56;13.18;;;2.40;;
73100;SDS011;61288;53.446;-2.266;2022-08-19T06:14:09;11.80;;;2.40;;
73100;SDS011;61288;53.446;-2.266;2022-08-19T06:16:41;11.55;;;2.53;;
73100;SDS011;61288;53.446;-2.266;2022-08-19T06:19:09;19.77;;;3.20;;
73100;SDS011;61288;53.446;-2.266;2022-08-19T06:21:38;16.08;;;2.70;;
73100;SDS011;61288;53.446;-2.266;2022-08-19T06:24:06;14.65;;;2.65;;
73100;SDS011;61288;53.446;-2.266;2022-08-19T06:26:35;13.20;;;2.88;;
73100;SDS011;61288;53.446;-2.266;2022-08-19T06:29:03;16.48;;;2.65;;
73100;SDS011;61288;53.446;-2.266;2022-08-19T06:31:31;17.35;;;3.00;;
73100;SDS011;61288;53.446;-2.266;2022-08-19T06:33:59;13.18;;;2.42;;
73100;SDS011;61288;53.446;-2.266;2022-08-19T06:36:28;12.10;;;2.60;;
73100;SDS011;61288;53.446;-2.266;2022-08-19T06:38:59;13.88;;;2.28;;
73100;SDS011;61288;53.446;-2.266;2022-08-19T06:41:26;16.88;;;2.60;;
73100;SDS011;61288;53.446;-2.266;2022-08-19T06:43:53;10.35;;;2.15;;
73100;SDS011;61288;53.446;-2.266;2022-08-19T06:46:20;8.18;;;2.25;;
73100;SDS011;61288;53.446;-2.266;2022-08-19T06:48:47;13.48;;;3.15;;
73100;SDS011;61288;53.446;-2.266;2022-08-19T06:51:14;11.48;;;2.20;;
73100;SDS011;61288;53.446;-2.266;2022-08-19T06:53:43;18.42;;;2.90;;
73100;SDS011;61288;53.446;-2.266;2022-08-19T06:56:17;15.45;;;2.65;;
73100;SDS011;61288;53.446;-2.266;2022-08-19T06:58:46;12.40;;;2.33;;
73100;SDS011;61288;53.446;-2.266;2022-08-19T07:01:15;12.45;;;2.25;;
73100;SDS011;61288;53.446;-2.266;2022-08-19T07:03:41;11.10;;;2.40;;
73100;SDS011;61288;53.446;-2.266;2022-08-19T07:06:08;15.77;;;2.95;;
73100;SDS011;61288;53.446;-2.266;2022-08-19T07:08:36;16.85;;;2.20;;
73100;SDS011;61288;53.446;-2.266;2022-08-19T07:11:06;18.65;;;2.63;;
73100;SDS011;61288;53.446;-2.266;2022-08-19T07:13:33;11.77;;;2.38;;
73100;SDS011;61288;53.446;-2.266;2022-08-19T07:16:05;13.25;;;2.30;;
73100;SDS011;61288;53.446;-2.266;2022-08-19T07:18:33;13.73;;;2.33;;
73100;SDS011;61288;53.446;-2.266;2022-08-19T07:21:03;11.50;;;2.08;;
73100;SDS011;61288;53.446;-2.266;2022-08-19T07:25:55;11.32;;;2.13;;
73100;SDS011;61288;53.446;-2.266;2022-08-19T07:28:20;15.40;;;2.30;;
73100;SDS011;61288;53.446;-2.266;2022-08-19T07:30:47;13.60;;;3.13;;
73100;SDS011;61288;53.446;-2.266;2022-08-19T07:33:15;15.38;;;2.28;;
73100;SDS011;61288;53.446;-2.266;2022-08-19T07:35:43;13.43;;;1.90;;
73100;SDS011;61288;53.446;-2.266;2022-08-19T07:38:08;15.93;;;2.33;;
73100;SDS011;61288;53.446;-2.266;2022-08-19T07:40:35;12.25;;;2.33;;
73100;SDS011;61288;53.446;-2.266;2022-08-19T07:43:01;14.35;;;2.08;;
73100;SDS011;61288;53.446;-2.266;2022-08-19T07:45:27;15.57;;;2.80;;
73100;SDS011;61288;53.446;-2.266;2022-08-19T07:47:53;15.30;;;2.45;;
73100;SDS011;61288;53.446;-2.266;2022-08-19T07:50:19;13.85;;;2.53;;
73100;SDS011;61288;53.446;-2.266;2022-08-19T07:52:47;14.02;;;2.60;;
73100;SDS011;61288;53.446;-2.266;2022-08-19T07:55:15;14.88;;;2.65;;
73100;SDS011;61288;53.446;-2.266;2022-08-19T07:57:42;14.98;;;2.55;;
73100;SDS011;61288;53.446;-2.266;2022-08-19T08:00:08;15.75;;;2.53;;
73100;SDS011;61288;53.446;-2.266;2022-08-19T08:02:34;11.20;;;2.10;;
73100;SDS011;61288;53.446;-2.266;2022-08-19T08:04:59;13.52;;;2.00;;
73100;SDS011;61288;53.446;-2.266;2022-08-19T08:07:44;17.33;;;4.13;;
73100;SDS011;61288;53.446;-2.266;2022-08-19T08:10:28;17.38;;;2.47;;
73100;SDS011;61288;53.446;-2.266;2022-08-19T08:12:53;17.75;;;2.70;;
73100;SDS011;61288;53.446;-2.266;2022-08-19T08:15:20;16.45;;;2.60;;
73100;SDS011;61288;53.446;-2.266;2022-08-19T08:17:46;14.23;;;2.05;;
73100;SDS011;61288;53.446;-2.266;2022-08-19T08:20:13;20.17;;;3.05;;
73100;SDS011;61288;53.446;-2.266;2022-08-19T08:22:43;16.73;;;2.63;;
73100;SDS011;61288;53.446;-2.266;2022-08-19T08:25:28;13.15;;;2.45;;
73100;SDS011;61288;53.446;-2.266;2022-08-19T08:27:56;9.10;;;2.00;;
73100;SDS011;61288;53.446;-2.266;2022-08-19T08:30:27;13.27;;;2.90;;
73100;SDS011;61288;53.446;-2.266;2022-08-19T08:32:54;14.80;;;2.38;;
73100;SDS011;61288;53.446;-2.266;2022-08-19T08:35:21;14.32;;;2.20;;
73100;SDS011;61288;53.446;-2.266;2022-08-19T08:37:48;17.92;;;2.92;;
73100;SDS011;61288;53.446;-2.266;2022-08-19T08:45:59;9.57;;;1.85;;
73100;SDS011;61288;53.446;-2.266;2022-08-19T08:48:46;10.52;;;2.15;;
73100;SDS011;61288;53.446;-2.266;2022-08-19T08:51:26;13.23;;;2.10;;
73100;SDS011;61288;53.446;-2.266;2022-08-19T08:53:59;12.73;;;2.17;;
73100;SDS011;61288;53.446;-2.266;2022-08-19T08:56:26;17.13;;;2.47;;
73100;SDS011;61288;53.446;-2.266;2022-08-19T08:58:59;11.77;;;2.40;;
73100;SDS011;61288;53.446;-2.266;2022-08-19T09:01:32;12.20;;;2.00;;
73100;SDS011;61288;53.446;-2.266;2022-08-19T09:03:58;12.23;;;2.28;;
73100;SDS011;61288;53.446;-2.266;2022-08-19T09:09:22;14.38;;;2.33;;
73100;SDS011;61288;53.446;-2.266;2022-08-19T09:17:24;14.43;;;2.67;;
73100;SDS011;61288;53.446;-2.266;2022-08-19T09:20:19;15.00;;;1.90;;
73100;SDS011;61288;53.446;-2.266;2022-08-19T09:22:48;13.25;;;2.20;;
73100;SDS011;61288;53.446;-2.266;2022-08-19T09:25:17;21.25;;;2.80;;
73100;SDS011;61288;53.446;-2.266;2022-08-19T09:27:48;9.75;;;2.05;;
73100;SDS011;61288;53.446;-2.266;2022-08-19T09:30:17;11.43;;;2.00;;
73100;SDS011;61288;53.446;-2.266;2022-08-19T09:32:50;14.82;;;2.28;;
73100;SDS011;61288;53.446;-2.266;2022-08-19T09:35:23;8.00;;;1.58;;
73100;SDS011;61288;53.446;-2.266;2022-08-19T09:37:51;11.82;;;2.30;;
73100;SDS011;61288;53.446;-2.266;2022-08-19T09:40:18;9.73;;;1.90;;
73100;SDS011;61288;53.446;-2.266;2022-08-19T09:42:44;11.32;;;1.98;;
73100;SDS011;61288;53.446;-2.266;2022-08-19T09:45:14;9.75;;;1.90;;
73100;SDS011;61288;53.446;-2.266;2022-08-19T09:47:41;12.25;;;2.10;;
73100;SDS011;61288;53.446;-2.266;2022-08-19T09:50:08;10.63;;;2.28;;
73100;SDS011;61288;53.446;-2.266;2022-08-19T09:52:36;12.48;;;2.38;;
73100;SDS011;61288;53.446;-2.266;2022-08-19T09:55:05;7.28;;;1.83;;
73100;SDS011;61288;53.446;-2.266;2022-08-19T09:57:32;12.90;;;1.98;;
73100;SDS011;61288;53.446;-2.266;2022-08-19T09:59:58;8.82;;;1.90;;
73100;SDS011;61288;53.446;-2.266;2022-08-19T10:02:23;14.88;;;1.92;;
73100;SDS011;61288;53.446;-2.266;2022-08-19T10:04:50;11.70;;;2.10;;
73100;SDS011;61288;53.446;-2.266;2022-08-19T10:07:36;10.38;;;2.35;;
73100;SDS011;61288;53.446;-2.266;2022-08-19T10:10:05;11.77;;;2.15;;
73100;SDS011;61288;53.446;-2.266;2022-08-19T10:12:33;10.82;;;2.20;;
73100;SDS011;61288;53.446;-2.266;2022-08-19T10:14:59;10.15;;;1.70;;
73100;SDS011;61288;53.446;-2.266;2022-08-19T10:17:25;9.68;;;2.22;;
73100;SDS011;61288;53.446;-2.266;2022-08-19T10:19:51;9.80;;;1.90;;
73100;SDS011;61288;53.446;-2.266;2022-08-19T10:22:17;11.80;;;2.53;;
73100;SDS011;61288;53.446;-2.266;2022-08-19T10:24:43;11.77;;;2.50;;
73100;SDS011;61288;53.446;-2.266;2022-08-19T10:27:08;9.77;;;1.60;;
73100;SDS011;61288;53.446;-2.266;2022-08-19T10:29:34;11.45;;;2.00;;
73100;SDS011;61288;53.446;-2.266;2022-08-19T10:32:04;12.35;;;2.20;;
73100;SDS011;61288;53.446;-2.266;2022-08-19T10:34:32;11.70;;;1.80;;
73100;SDS011;61288;53.446;-2.266;2022-08-19T10:36:58;10.48;;;1.90;;
73100;SDS011;61288;53.446;-2.266;2022-08-19T10:39:25;10.55;;;1.70;;
73100;SDS011;61288;53.446;-2.266;2022-08-19T10:41:51;8.23;;;1.65;;
73100;SDS011;61288;53.446;-2.266;2022-08-19T10:44:16;8.02;;;1.35;;
73100;SDS011;61288;53.446;-2.266;2022-08-19T10:46:43;4.70;;;1.48;;
73100;SDS011;61288;53.446;-2.266;2022-08-19T10:49:10;7.13;;;1.75;;
73100;SDS011;61288;53.446;-2.266;2022-08-19T10:51:37;9.40;;;1.75;;
73100;SDS011;61288;53.446;-2.266;2022-08-19T10:54:23;8.15;;;1.58;;
73100;SDS011;61288;53.446;-2.266;2022-08-19T10:57:10;8.50;;;1.30;;
73100;SDS011;61288;53.446;-2.266;2022-08-19T10:59:36;7.65;;;1.88;;
73100;SDS011;61288;53.446;-2.266;2022-08-19T11:02:04;11.82;;;1.80;;
73100;SDS011;61288;53.446;-2.266;2022-08-19T11:04:32;6.10;;;1.48;;
73100;SDS011;61288;53.446;-2.266;2022-08-19T11:06:58;3.53;;;1.10;;
73100;SDS011;61288;53.446;-2.266;2022-08-19T11:09:25;5.13;;;1.30;;
73100;SDS011;61288;53.446;-2.266;2022-08-19T11:11:52;6.07;;;1.30;;
73100;SDS011;61288;53.446;-2.266;2022-08-19T11:14:19;5.90;;;1.17;;
73100;SDS011;61288;53.446;-2.266;2022-08-19T11:16:46;7.03;;;1.40;;
73100;SDS011;61288;53.446;-2.266;2022-08-19T11:19:14;7.60;;;1.35;;
73100;SDS011;61288;53.446;-2.266;2022-08-19T11:21:43;4.97;;;1.30;;
73100;SDS011;61288;53.446;-2.266;2022-08-19T11:24:13;6.70;;;1.50;;
73100;SDS011;61288;53.446;-2.266;2022-08-19T11:26:41;4.57;;;1.30;;
73100;SDS011;61288;53.446;-2.266;2022-08-19T11:29:08;5.10;;;1.25;;
73100;SDS011;61288;53.446;-2.266;2022-08-19T11:31:36;6.22;;;1.15;;
73100;SDS011;61288;53.446;-2.266;2022-08-19T11:34:06;7.03;;;1.75;;
73100;SDS011;61288;53.446;-2.266;2022-08-19T11:36:33;4.45;;;1.40;;
73100;SDS011;61288;53.446;-2.266;2022-08-19T11:39:03;7.13;;;1.70;;
73100;SDS011;61288;53.446;-2.266;2022-08-19T11:41:30;5.55;;;1.42;;
73100;SDS011;61288;53.446;-2.266;2022-08-19T11:43:58;10.20;;;1.58;;
73100;SDS011;61288;53.446;-2.266;2022-08-19T11:46:24;4.00;;;1.00;;
73100;SDS011;61288;53.446;-2.266;2022-08-19T11:48:53;8.07;;;1.42;;
73100;SDS011;61288;53.446;-2.266;2022-08-19T11:51:21;6.70;;;1.33;;
73100;SDS011;61288;53.446;-2.266;2022-08-19T11:53:49;3.90;;;1.08;;
73100;SDS011;61288;53.446;-2.266;2022-08-19T11:56:16;4.65;;;0.93;;
73100;SDS011;61288;53.446;-2.266;2022-08-19T11:58:43;7.25;;;1.40;;
73100;SDS011;61288;53.446;-2.266;2022-08-19T12:01:10;6.35;;;1.10;;
73100;SDS011;61288;53.446;-2.266;2022-08-19T12:03:41;1.98;;;0.93;;
73100;SDS011;61288;53.446;-2.266;2022-08-19T12:06:07;5.90;;;1.40;;
73100;SDS011;61288;53.446;-2.266;2022-08-19T12:08:34;2.20;;;0.80;;
73100;SDS011;61288;53.446;-2.266;2022-08-19T12:11:00;6.00;;;1.20;;
73100;SDS011;61288;53.446;-2.266;2022-08-19T12:13:27;3.30;;;1.00;;
73100;SDS011;61288;53.446;-2.266;2022-08-19T12:15:53;7.75;;;1.38;;
73100;SDS011;61288;53.446;-2.266;2022-08-19T12:18:19;5.03;;;1.33;;
73100;SDS011;61288;53.446;-2.266;2022-08-19T12:20:45;5.22;;;1.33;;
73100;SDS011;61288;53.446;-2.266;2022-08-19T12:23:12;3.65;;;1.00;;
73100;SDS011;61288;53.446;-2.266;2022-08-19T12:25:42;6.28;;;1.40;;
73100;SDS011;61288;53.446;-2.266;2022-08-19T12:28:19;4.80;;;1.00;;
73100;SDS011;61288;53.446;-2.266;2022-08-19T12:30:46;6.38;;;1.45;;
73100;SDS011;61288;53.446;-2.266;2022-08-19T12:33:13;5.78;;;1.38;;
73100;SDS011;61288;53.446;-2.266;2022-08-19T12:35:43;6.75;;;1.30;;
73100;SDS011;61288;53.446;-2.266;2022-08-19T12:38:12;4.88;;;1.40;;
73100;SDS011;61288;53.446;-2.266;2022-08-19T12:40:39;6.15;;;1.20;;
73100;SDS011;61288;53.446;-2.266;2022-08-19T12:43:06;4.53;;;1.30;;
73100;SDS011;61288;53.446;-2.266;2022-08-19T12:45:33;7.60;;;1.00;;
73100;SDS011;61288;53.446;-2.266;2022-08-19T12:47:59;6.53;;;1.40;;
73100;SDS011;61288;53.446;-2.266;2022-08-19T12:50:25;7.40;;;1.33;;
73100;SDS011;61288;53.446;-2.266;2022-08-19T12:52:51;8.38;;;1.50;;
73100;SDS011;61288;53.446;-2.266;2022-08-19T12:55:17;7.05;;;1.40;;
73100;SDS011;61288;53.446;-2.266;2022-08-19T12:57:45;4.80;;;1.30;;
73100;SDS011;61288;53.446;-2.266;2022-08-19T13:00:14;5.50;;;1.40;;
73100;SDS011;61288;53.446;-2.266;2022-08-19T13:02:43;3.70;;;1.23;;
73100;SDS011;61288;53.446;-2.266;2022-08-19T13:05:12;6.25;;;1.52;;
73100;SDS011;61288;53.446;-2.266;2022-08-19T13:07:39;4.35;;;1.17;;
73100;SDS011;61288;53.446;-2.266;2022-08-19T13:10:06;3.65;;;1.10;;
73100;SDS011;61288;53.446;-2.266;2022-08-19T13:12:34;4.65;;;1.23;;
73100;SDS011;61288;53.446;-2.266;2022-08-19T13:15:01;2.83;;;1.13;;
73100;SDS011;61288;53.446;-2.266;2022-08-19T13:17:26;4.80;;;1.00;;
73100;SDS011;61288;53.446;-2.266;2022-08-19T13:19:52;6.35;;;1.15;;
73100;SDS011;61288;53.446;-2.266;2022-08-19T13:22:18;4.78;;;1.20;;
73100;SDS011;61288;53.446;-2.266;2022-08-19T13:24:44;3.10;;;1.00;;
73100;SDS011;61288;53.446;-2.266;2022-08-19T13:27:10;5.03;;;1.10;;
73100;SDS011;61288;53.446;-2.266;2022-08-19T13:29:36;3.58;;;1.20;;
73100;SDS011;61288;53.446;-2.266;2022-08-19T13:32:20;5.80;;;1.30;;
73100;SDS011;61288;53.446;-2.266;2022-08-19T13:35:04;2.78;;;0.98;;
73100;SDS011;61288;53.446;-2.266;2022-08-19T13:37:30;5.15;;;1.30;;
73100;SDS011;61288;53.446;-2.266;2022-08-19T13:40:08;6.90;;;1.58;;
73100;SDS011;61288;53.446;-2.266;2022-08-19T13:42:55;4.30;;;1.15;;
73100;SDS011;61288;53.446;-2.266;2022-08-19T13:45:22;4.15;;;1.10;;
73100;SDS011;61288;53.446;-2.266;2022-08-19T13:47:49;5.93;;;1.25;;
73100;SDS011;61288;53.446;-2.266;2022-08-19T13:50:17;3.80;;;1.23;;
73100;SDS011;61288;53.446;-2.266;2022-08-19T13:52:45;5.45;;;1.40;;
73100;SDS011;61288;53.446;-2.266;2022-08-19T13:55:13;5.75;;;1.02;;
73100;SDS011;61288;53.446;-2.266;2022-08-19T13:57:39;8.23;;;1.55;;
73100;SDS011;61288;53.446;-2.266;2022-08-19T14:00:11;7.57;;;1.33;;
73100;SDS011;61288;53.446;-2.266;2022-08-19T14:02:40;4.88;;;1.08;;
73100;SDS011;61288;53.446;-2.266;2022-08-19T14:05:08;3.60;;;1.05;;
73100;SDS011;61288;53.446;-2.266;2022-08-19T14:07:36;6.18;;;1.27;;
73100;SDS011;61288;53.446;-2.266;2022-08-19T14:10:02;4.82;;;1.00;;
73100;SDS011;61288;53.446;-2.266;2022-08-19T14:12:31;3.70;;;1.15;;
73100;SDS011;61288;53.446;-2.266;2022-08-19T14:14:57;5.03;;;1.00;;
73100;SDS011;61288;53.446;-2.266;2022-08-19T14:17:24;5.57;;;1.35;;
73100;SDS011;61288;53.446;-2.266;2022-08-19T14:19:59;7.47;;;1.20;;
73100;SDS011;61288;53.446;-2.266;2022-08-19T14:22:29;4.53;;;1.23;;
73100;SDS011;61288;53.446;-2.266;2022-08-19T14:24:58;3.72;;;1.30;;
73100;SDS011;61288;53.446;-2.266;2022-08-19T14:27:24;5.38;;;1.30;;
73100;SDS011;61288;53.446;-2.266;2022-08-19T14:29:51;4.88;;;1.25;;
73100;SDS011;61288;53.446;-2.266;2022-08-19T14:32:17;4.10;;;1.10;;
73100;SDS011;61288;53.446;-2.266;2022-08-19T14:34:43;2.00;;;1.00;;
73100;SDS011;61288;53.446;-2.266;2022-08-19T14:37:10;6.13;;;1.10;;
73100;SDS011;61288;53.446;-2.266;2022-08-19T14:39:40;2.65;;;1.13;;
73100;SDS011;61288;53.446;-2.266;2022-08-19T14:42:07;6.97;;;1.70;;
73100;SDS011;61288;53.446;-2.266;2022-08-19T14:44:34;4.95;;;1.27;;
73100;SDS011;61288;53.446;-2.266;2022-08-19T14:47:01;5.05;;;1.38;;
73100;SDS011;61288;53.446;-2.266;2022-08-19T14:49:26;4.57;;;1.10;;
73100;SDS011;61288;53.446;-2.266;2022-08-19T14:51:52;6.13;;;1.40;;
73100;SDS011;61288;53.446;-2.266;2022-08-19T14:54:18;4.85;;;1.00;;
73100;SDS011;61288;53.446;-2.266;2022-08-19T14:56:43;3.72;;;0.90;;
73100;SDS011;61288;53.446;-2.266;2022-08-19T14:59:10;6.75;;;1.30;;
73100;SDS011;61288;53.446;-2.266;2022-08-19T15:01:36;7.60;;;1.30;;
73100;SDS011;61288;53.446;-2.266;2022-08-19T15:04:02;9.10;;;1.30;;